PHNY

Lanai Airport

Lanai City, Hawaii, USA
PHNY 212321Z 2200/2224 28007KT P6SM SCT020 FM220200 VRB04KT P6SM SCT020 FM222000 28007KT P6SM SCT020
Issued Valid From Valid To
Jan-21 @ 23:21 UTC
(50 minutes ago)
Jan-22 @ 00:00 UTC
(11 minutes ago)
Jan-23 @ 00:00 UTC
(in 24 hours)
Jan-22 @ 00:00 to Jan-22 @ 02:00
PHNY 212321Z 2200/2224 28007KT P6SM SCT020
Wind Visibility Clouds
280° at 7 knots Greater than 6 miles
  • Scattered at 2,000' AGL
From Jan-22 @ 02:00 to Jan-22 @ 20:00
FM220200 VRB04KT P6SM SCT020
Wind Visibility Clouds
Variable at 4 knots Greater than 6 miles
  • Scattered at 2,000' AGL
From Jan-22 @ 20:00 to Jan-23 @ 00:00
FM222000 28007KT P6SM SCT020
Wind Visibility Clouds
280° at 7 knots Greater than 6 miles
  • Scattered at 2,000' AGL
PHNY 212321Z 2200/2224 28007KT P6SM SCT020 FM220200 VRB04KT P6SM SCT020 FM222000 28007KT P6SM SCT020
Issued Jan-21 @ 23:21 UTC
(50 minutes ago)
Valid From Jan-22 @ 00:00 UTC
(11 minutes ago)
Valid To Jan-23 @ 00:00 UTC
(in 24 hours)
Jan-22 @ 00:00 - Jan-22 @ 02:00
Wind Visibility
280° at 7 knots Greater than 6 miles
Clouds
  • Scattered at 2,000' AGL
From Jan-22 @ 02:00 - Jan-22 @ 20:00
Wind Visibility
Variable at 4 knots Greater than 6 miles
Clouds
  • Scattered at 2,000' AGL
From Jan-22 @ 20:00 - Jan-23 @ 00:00
Wind Visibility
280° at 7 knots Greater than 6 miles
Clouds
  • Scattered at 2,000' AGL